Time;durP1;ratioP1;P1;durP2;ratioP2;P2;SDS_P1;SDS_P2;PMS_P1;PMS_P2;Temp;Humidity;BMP_temperature;BMP_pressure;BME280_temperature;BME280_humidity;BME280_pressure;Samples;Min_cycle;Max_cycle;Signal;HPM_P1;HPM_P2
2023/03/03 00:00:32;;;;;;;117.45;11.35;;;;;;;;;;5028569;28;20059;-62
2023/03/03 00:03:00;;;;;;;90.15;8.73;;;;;;;;;;5025082;28;20053;-63
2023/03/03 00:05:25;;;;;;;137.13;12.35;;;;;;;;;;5025768;28;20030;-61
2023/03/03 00:07:50;;;;;;;116.50;10.87;;;;;;;;;;5028319;28;20476;-60
2023/03/03 00:10:16;;;;;;;95.90;11.45;;;;;;;;;;5027432;28;20867;-62
2023/03/03 00:12:46;;;;;;;110.00;12.00;;;;;;;;;;5026279;28;20021;-62
2023/03/03 00:15:13;;;;;;;105.32;11.63;;;;;;;;;;5027073;28;20021;-63
2023/03/03 00:17:38;;;;;;;123.18;12.73;;;;;;;;;;5027956;28;20014;-62
2023/03/03 00:20:22;;;;;;;111.80;11.37;;;;;;;;;;5025444;28;20118;-63
2023/03/03 00:22:47;;;;;;;132.07;12.95;;;;;;;;;;5027702;28;20276;-62
2023/03/03 00:25:29;;;;;;;115.85;11.70;;;;;;;;;;5027618;28;20024;-62
2023/03/03 00:27:54;;;;;;;;;;;;;;;;;;5027331;28;20021;-62
2023/03/03 00:30:24;;;;;;;91.53;6.45;;;;;;;;;;5026405;28;20387;-62
2023/03/03 00:32:49;;;;;;;129.55;12.45;;;;;;;;;;5027415;28;20069;-63
2023/03/03 00:35:23;;;;;;;103.95;11.95;;;;;;;;;;5025928;28;20544;-63
2023/03/03 00:37:49;;;;;;;114.75;11.70;;;;;;;;;;5027689;28;20017;-64
2023/03/03 00:40:22;;;;;;;113.90;12.38;;;;;;;;;;5026980;28;20104;-63
2023/03/03 00:42:52;;;;;;;84.82;10.23;;;;;;;;;;5025881;28;20021;-62
2023/03/03 00:45:38;;;;;;;129.98;13.05;;;;;;;;;;5024270;28;20075;-62
2023/03/03 00:48:22;;;;;;;109.28;12.95;;;;;;;;;;5026878;28;20029;-60
2023/03/03 00:50:48;;;;;;;116.20;10.70;;;;;;;;;;5028020;28;20047;-60
2023/03/03 00:53:16;;;;;;;126.35;11.68;;;;;;;;;;5026875;28;20025;-61
2023/03/03 00:55:41;;;;;;;98.72;10.75;;;;;;;;;;5025681;28;20090;-63
2023/03/03 00:58:06;;;;;;;113.72;11.40;;;;;;;;;;5028902;28;20033;-63
2023/03/03 01:00:32;;;;;;;139.40;13.52;;;;;;;;;;5026490;28;21044;-63
2023/03/03 01:03:00;;;;;;;113.35;12.43;;;;;;;;;;5026771;28;20507;-63
2023/03/03 01:05:26;;;;;;;101.97;10.70;;;;;;;;;;5026353;28;20124;-63
2023/03/03 01:07:51;;;;;;;92.03;8.98;;;;;;;;;;5027805;28;20218;-61
2023/03/03 01:10:16;;;;;;;103.05;11.63;;;;;;;;;;5027549;28;20051;-61
2023/03/03 01:12:41;;;;;;;143.55;12.88;;;;;;;;;;5025598;28;20032;-62
2023/03/03 01:15:08;;;;;;;95.15;11.20;;;;;;;;;;5026706;28;20052;-63
2023/03/03 01:17:33;;;;;;;105.25;12.07;;;;;;;;;;5027215;28;20026;-61
2023/03/03 01:19:59;;;;;;;120.75;12.65;;;;;;;;;;5025123;28;21093;-63
2023/03/03 01:22:24;;;;;;;106.35;10.32;;;;;;;;;;5025865;28;20144;-62
2023/03/03 01:24:49;;;;;;;147.02;11.32;;;;;;;;;;5026038;28;20478;-63
2023/03/03 01:27:14;;;;;;;85.85;10.73;;;;;;;;;;5025218;28;20034;-61
2023/03/03 01:29:39;;;;;;;98.78;12.25;;;;;;;;;;5025605;28;20025;-63
2023/03/03 01:32:05;;;;;;;131.73;12.45;;;;;;;;;;5024121;28;20148;-62
2023/03/03 01:34:30;;;;;;;116.68;12.15;;;;;;;;;;5027242;28;20056;-63
2023/03/03 01:36:55;;;;;;;109.43;11.98;;;;;;;;;;5025240;28;20034;-62
2023/03/03 01:39:20;;;;;;;119.70;11.47;;;;;;;;;;5027712;28;20087;-63
2023/03/03 01:41:46;;;;;;;81.35;9.32;;;;;;;;;;5025438;28;20275;-62
2023/03/03 01:44:13;;;;;;;71.70;10.35;;;;;;;;;;5026505;28;20041;-62
2023/03/03 01:46:53;;;;;;;119.68;12.05;;;;;;;;;;5027990;28;20128;-61
2023/03/03 01:49:21;;;;;;;116.03;12.18;;;;;;;;;;5025930;28;20031;-61
2023/03/03 01:51:49;;;;;;;102.72;11.57;;;;;;;;;;5026840;28;20116;-61
2023/03/03 01:54:20;;;;;;;98.03;10.25;;;;;;;;;;5025027;28;20059;-62
2023/03/03 01:56:46;;;;;;;92.28;9.43;;;;;;;;;;5026569;28;20048;-62
2023/03/03 01:59:17;;;;;;;108.97;10.80;;;;;;;;;;5025170;28;20033;-60
2023/03/03 02:01:42;;;;;;;122.00;11.95;;;;;;;;;;5023966;28;20041;-62
2023/03/03 02:04:08;;;;;;;109.40;10.15;;;;;;;;;;5025730;28;20029;-62
2023/03/03 02:06:35;;;;;;;97.10;10.55;;;;;;;;;;5022765;28;20099;-62
2023/03/03 02:09:05;;;;;;;104.90;12.25;;;;;;;;;;5025275;28;20041;-62
2023/03/03 02:11:31;;;;;;;107.80;11.45;;;;;;;;;;5025202;28;20039;-61
2023/03/03 02:13:56;;;;;;;143.35;13.45;;;;;;;;;;5025939;28;20019;-61
2023/03/03 02:16:22;;;;;;;104.22;10.82;;;;;;;;;;5025529;28;20033;-63
2023/03/03 02:18:47;;;;;;;90.38;11.10;;;;;;;;;;5026313;28;20025;-63
2023/03/03 02:21:18;;;;;;;106.35;11.52;;;;;;;;;;5024984;28;20148;-63
2023/03/03 02:23:55;;;;;;;99.57;12.07;;;;;;;;;;5025411;28;20017;-63
2023/03/03 02:26:21;;;;;;;105.53;12.20;;;;;;;;;;5023945;28;20246;-62
2023/03/03 02:28:47;;;;;;;101.90;11.40;;;;;;;;;;5028704;28;20020;-64
2023/03/03 02:31:14;;;;;;;138.43;14.05;;;;;;;;;;5023914;28;20033;-62
2023/03/03 02:33:43;;;;;;;113.18;12.82;;;;;;;;;;5026765;28;20018;-61
2023/03/03 02:36:12;;;;;;;93.78;10.52;;;;;;;;;;5029422;28;20146;-63
2023/03/03 02:38:38;;;;;;;97.57;11.02;;;;;;;;;;5029107;28;20032;-63
2023/03/03 02:41:08;;;;;;;110.25;12.68;;;;;;;;;;5027265;28;20037;-62
2023/03/03 02:43:53;;;;;;;135.95;13.10;;;;;;;;;;5030786;28;20455;-62
2023/03/03 02:46:18;;;;;;;105.57;12.10;;;;;;;;;;5021090;28;20030;-61
2023/03/03 02:48:43;;;;;;;110.40;9.98;;;;;;;;;;5029387;28;20032;-61
2023/03/03 02:51:09;;;;;;;105.38;12.60;;;;;;;;;;5028281;28;20045;-63
2023/03/03 02:53:34;;;;;;;140.15;13.45;;;;;;;;;;5027314;28;20052;-62
2023/03/03 02:55:59;;;;;;;118.60;13.40;;;;;;;;;;5027938;28;20136;-61
2023/03/03 02:58:25;;;;;;;108.72;12.35;;;;;;;;;;5030774;28;20021;-61
2023/03/03 03:00:50;;;;;;;156.40;14.07;;;;;;;;;;5030066;28;20041;-62
2023/03/03 03:03:15;;;;;;;117.43;13.10;;;;;;;;;;5028830;28;20029;-61
2023/03/03 03:05:40;;;;;;;104.93;12.68;;;;;;;;;;5029946;28;20029;-62
2023/03/03 03:08:05;;;;;;;129.48;13.60;;;;;;;;;;5029716;28;20040;-63
2023/03/03 03:10:31;;;;;;;114.68;13.98;;;;;;;;;;5030716;28;20033;-61
2023/03/03 03:12:56;;;;;;;109.05;13.50;;;;;;;;;;5027001;28;20060;-60
2023/03/03 03:15:21;;;;;;;131.20;16.02;;;;;;;;;;5027878;28;20029;-62
2023/03/03 03:17:46;;;;;;;112.47;10.98;;;;;;;;;;5027629;28;20016;-61
2023/03/03 03:20:12;;;;;;;128.00;14.60;;;;;;;;;;5027619;28;20017;-63
2023/03/03 03:22:37;;;;;;;145.38;15.00;;;;;;;;;;5028544;28;20029;-61
2023/03/03 03:25:02;;;;;;;109.45;12.70;;;;;;;;;;5028514;28;20025;-63
2023/03/03 03:27:27;;;;;;;135.50;13.77;;;;;;;;;;5026995;28;20140;-63
2023/03/03 03:29:53;;;;;;;114.88;13.38;;;;;;;;;;5028707;28;20087;-62
2023/03/03 03:32:18;;;;;;;97.63;11.90;;;;;;;;;;5028602;28;20187;-61
2023/03/03 03:34:43;;;;;;;135.57;14.50;;;;;;;;;;5028024;28;20032;-64
2023/03/03 03:37:08;;;;;;;105.88;12.77;;;;;;;;;;5026056;28;20103;-63
2023/03/03 03:39:34;;;;;;;135.20;14.38;;;;;;;;;;5028503;28;20101;-62
2023/03/03 03:41:59;;;;;;;115.38;13.25;;;;;;;;;;5026576;28;20279;-61
2023/03/03 03:44:24;;;;;;;119.45;11.23;;;;;;;;;;5028436;28;20403;-63
2023/03/03 03:46:50;;;;;;;126.43;13.50;;;;;;;;;;5026158;28;20037;-63
2023/03/03 03:49:15;;;;;;;85.63;11.98;;;;;;;;;;5027719;28;20659;-64
2023/03/03 03:51:40;;;;;;;116.00;12.63;;;;;;;;;;5028592;28;20102;-63
2023/03/03 03:54:06;;;;;;;129.10;14.02;;;;;;;;;;5026694;28;20021;-63
2023/03/03 03:56:31;;;;;;;109.15;13.45;;;;;;;;;;5028199;28;20121;-61
2023/03/03 03:58:57;;;;;;;117.13;13.10;;;;;;;;;;5027818;28;20047;-62
2023/03/03 04:01:22;;;;;;;104.22;11.93;;;;;;;;;;5026772;28;20101;-61
2023/03/03 04:03:48;;;;;;;114.28;12.65;;;;;;;;;;5027206;28;20542;-61
2023/03/03 04:06:13;;;;;;;126.18;13.50;;;;;;;;;;5026133;28;20482;-63
2023/03/03 04:08:38;;;;;;;112.72;12.90;;;;;;;;;;5027489;28;20078;-61
2023/03/03 04:11:04;;;;;;;120.05;12.05;;;;;;;;;;5027737;28;20064;-62
2023/03/03 04:13:30;;;;;;;137.52;14.15;;;;;;;;;;5028418;28;20063;-62
2023/03/03 04:15:56;;;;;;;122.47;13.25;;;;;;;;;;5026012;28;20071;-61
2023/03/03 04:18:21;;;;;;;111.85;12.90;;;;;;;;;;5026534;28;20056;-61
2023/03/03 04:20:46;;;;;;;115.22;12.10;;;;;;;;;;5027434;28;20407;-60
2023/03/03 04:23:11;;;;;;;109.40;12.90;;;;;;;;;;5028916;28;20021;-62
2023/03/03 04:25:37;;;;;;;121.32;13.00;;;;;;;;;;5027170;28;20144;-62
2023/03/03 04:28:02;;;;;;;92.68;12.32;;;;;;;;;;5028442;28;20433;-61
2023/03/03 04:30:27;;;;;;;106.38;12.48;;;;;;;;;;5028389;28;20208;-64
2023/03/03 04:32:52;;;;;;;149.00;14.75;;;;;;;;;;5026545;28;20071;-62
2023/03/03 04:35:18;;;;;;;118.97;13.52;;;;;;;;;;5026458;28;20032;-62
2023/03/03 04:37:43;;;;;;;110.63;13.73;;;;;;;;;;5026023;28;20237;-62
2023/03/03 04:40:09;;;;;;;128.10;14.70;;;;;;;;;;5028252;28;20569;-63
2023/03/03 04:42:34;;;;;;;146.30;14.43;;;;;;;;;;5027141;28;20108;-64
2023/03/03 04:44:59;;;;;;;124.70;11.48;;;;;;;;;;5026595;28;20411;-62
2023/03/03 04:47:25;;;;;;;114.50;12.70;;;;;;;;;;5025584;28;20025;-63
2023/03/03 04:49:50;;;;;;;99.38;9.45;;;;;;;;;;5029090;28;20028;-61
2023/03/03 04:52:15;;;;;;;139.43;13.60;;;;;;;;;;5027129;28;20038;-60
2023/03/03 04:54:40;;;;;;;139.52;13.80;;;;;;;;;;5027721;28;20047;-60
2023/03/03 04:57:08;;;;;;;116.25;13.15;;;;;;;;;;5026674;28;20033;-60
2023/03/03 04:59:33;;;;;;;128.45;13.50;;;;;;;;;;5028348;28;20033;-61
2023/03/03 05:01:58;;;;;;;130.48;14.57;;;;;;;;;;5023564;28;20044;-61
2023/03/03 05:04:24;;;;;;;150.82;14.70;;;;;;;;;;5024069;28;20025;-59
2023/03/03 05:06:49;;;;;;;132.32;15.45;;;;;;;;;;5024294;28;20029;-62
2023/03/03 05:09:14;;;;;;;114.22;13.60;;;;;;;;;;5026256;28;20041;-59
2023/03/03 05:11:39;;;;;;;141.05;14.15;;;;;;;;;;5026774;28;20038;-64
2023/03/03 05:14:06;;;;;;;112.95;12.55;;;;;;;;;;5026066;28;20044;-61
2023/03/03 05:16:32;;;;;;;86.25;11.10;;;;;;;;;;5027204;28;20040;-60
2023/03/03 05:18:57;;;;;;;117.10;12.35;;;;;;;;;;5026903;28;20017;-62
2023/03/03 05:21:22;;;;;;;96.50;12.77;;;;;;;;;;5026976;28;20029;-62
2023/03/03 05:23:47;;;;;;;122.45;14.50;;;;;;;;;;5026166;28;20028;-62
2023/03/03 05:26:13;;;;;;;140.02;16.35;;;;;;;;;;5025823;28;20040;-62
2023/03/03 05:28:38;;;;;;;111.95;13.38;;;;;;;;;;5025748;28;20021;-63
2023/03/03 05:31:03;;;;;;;139.40;13.20;;;;;;;;;;5024964;28;20033;-61
2023/03/03 05:33:28;;;;;;;141.95;15.50;;;;;;;;;;5027006;28;20034;-63
2023/03/03 05:35:54;;;;;;;120.88;14.95;;;;;;;;;;5025671;28;20041;-64
2023/03/03 05:38:20;;;;;;;127.63;14.38;;;;;;;;;;5027293;28;20032;-63
2023/03/03 05:40:45;;;;;;;119.15;14.32;;;;;;;;;;5027034;28;20069;-62
2023/03/03 05:43:11;;;;;;;146.95;15.10;;;;;;;;;;5025174;28;20057;-60
2023/03/03 05:45:36;;;;;;;121.82;14.93;;;;;;;;;;5025254;28;20029;-62
2023/03/03 05:48:02;;;;;;;103.32;12.88;;;;;;;;;;5027749;28;20056;-61
2023/03/03 05:50:27;;;;;;;126.55;15.70;;;;;;;;;;5024618;28;20160;-64
2023/03/03 05:52:52;;;;;;;130.60;14.82;;;;;;;;;;5026466;28;20036;-61
2023/03/03 05:55:18;;;;;;;123.07;15.35;;;;;;;;;;5026161;28;20627;-62
2023/03/03 05:57:43;;;;;;;153.35;15.43;;;;;;;;;;5026515;28;20378;-61
2023/03/03 06:00:09;;;;;;;127.80;14.50;;;;;;;;;;5025776;28;20018;-63
2023/03/03 06:02:34;;;;;;;127.10;11.80;;;;;;;;;;5027226;28;20374;-62
2023/03/03 06:05:00;;;;;;;95.40;9.38;;;;;;;;;;5026325;28;20406;-63
2023/03/03 06:07:25;;;;;;;110.22;14.38;;;;;;;;;;5026616;28;20116;-61
2023/03/03 06:09:50;;;;;;;140.20;15.95;;;;;;;;;;5029325;28;20674;-62
2023/03/03 06:12:16;;;;;;;116.82;13.77;;;;;;;;;;5029644;28;20107;-62
2023/03/03 06:14:41;;;;;;;161.63;16.20;;;;;;;;;;5028807;28;20021;-59
2023/03/03 06:17:06;;;;;;;138.15;15.38;;;;;;;;;;5028311;28;20675;-63
2023/03/03 06:19:31;;;;;;;145.35;15.45;;;;;;;;;;5029532;28;20052;-63
2023/03/03 06:21:56;;;;;;;116.63;15.35;;;;;;;;;;5029546;28;20037;-63
2023/03/03 06:24:24;;;;;;;132.75;15.57;;;;;;;;;;5029318;28;20018;-62
2023/03/03 06:26:49;;;;;;;124.35;15.02;;;;;;;;;;5030057;28;20127;-60
2023/03/03 06:29:14;;;;;;;133.30;15.52;;;;;;;;;;5029700;28;20148;-64
2023/03/03 06:31:40;;;;;;;131.57;15.60;;;;;;;;;;5029615;28;20025;-62
2023/03/03 06:34:05;;;;;;;136.23;12.93;;;;;;;;;;5028106;28;20055;-59
2023/03/03 06:36:30;;;;;;;157.60;12.60;;;;;;;;;;5026131;28;20033;-61
2023/03/03 06:38:55;;;;;;;107.78;11.82;;;;;;;;;;5031296;28;20026;-63
2023/03/03 06:41:20;;;;;;;116.68;12.25;;;;;;;;;;5029493;28;20183;-61
2023/03/03 06:43:46;;;;;;;118.07;9.07;;;;;;;;;;5029173;28;20061;-62
2023/03/03 06:46:11;;;;;;;128.77;12.90;;;;;;;;;;5028767;28;20149;-60
2023/03/03 06:48:36;;;;;;;110.47;11.52;;;;;;;;;;5029573;28;20028;-62
2023/03/03 06:51:05;;;;;;;127.47;11.90;;;;;;;;;;5029343;28;20042;-63
2023/03/03 06:53:32;;;;;;;88.43;9.05;;;;;;;;;;5030109;28;20033;-63
2023/03/03 06:55:57;;;;;;;100.28;8.13;;;;;;;;;;5028156;28;20103;-60
2023/03/03 06:58:28;;;;;;;86.10;8.68;;;;;;;;;;5029068;28;20032;-62
2023/03/03 07:00:57;;;;;;;147.63;12.93;;;;;;;;;;5028212;28;20025;-61
2023/03/03 07:03:23;;;;;;;82.68;5.97;;;;;;;;;;5027794;28;20642;-63
2023/03/03 07:05:50;;;;;;;86.70;7.63;;;;;;;;;;5027357;28;20087;-63
2023/03/03 07:08:17;;;;;;;122.50;10.18;;;;;;;;;;5028790;28;20135;-60
2023/03/03 07:10:42;;;;;;;99.72;9.77;;;;;;;;;;5027602;28;20060;-60
2023/03/03 07:13:17;;;;;;;120.55;13.15;;;;;;;;;;5028880;28;20105;-61
2023/03/03 07:15:42;;;;;;;95.25;10.38;;;;;;;;;;5028169;28;20040;-62
2023/03/03 07:18:21;;;;;;;100.70;11.40;;;;;;;;;;5028490;28;20025;-63
2023/03/03 07:20:46;;;;;;;111.10;11.63;;;;;;;;;;5025863;28;20052;-59
2023/03/03 07:23:20;;;;;;;115.18;12.48;;;;;;;;;;5030126;28;20029;-62
2023/03/03 07:25:45;;;;;;;113.15;14.50;;;;;;;;;;5028117;28;20064;-60
2023/03/03 07:28:17;;;;;;;116.50;10.38;;;;;;;;;;5028342;28;20041;-60
2023/03/03 07:30:42;;;;;;;101.45;8.32;;;;;;;;;;5028658;28;20041;-60
2023/03/03 07:33:15;;;;;;;90.18;10.40;;;;;;;;;;5028704;28;20422;-62
2023/03/03 07:35:42;;;;;;;129.10;14.23;;;;;;;;;;5026290;28;20103;-64
2023/03/03 07:38:26;;;;;;;112.22;10.32;;;;;;;;;;5028474;28;20026;-62
2023/03/03 07:40:52;;;;;;;163.75;15.85;;;;;;;;;;5029075;28;20099;-61
2023/03/03 07:43:30;;;;;;;103.30;10.90;;;;;;;;;;5029052;28;20032;-62
2023/03/03 07:45:57;;;;;;;113.68;10.18;;;;;;;;;;5026640;28;20084;-61
2023/03/03 07:48:30;;;;;;;85.78;8.65;;;;;;;;;;5028611;28;20025;-61
2023/03/03 07:50:55;;;;;;;;;;;;;;;;;;5030192;28;20710;-61
2023/03/03 07:53:28;;;;;;;77.28;7.43;;;;;;;;;;5027289;28;20597;-63
2023/03/03 07:55:54;;;;;;;66.07;8.50;;;;;;;;;;5028303;28;20175;-62
2023/03/03 07:58:26;;;;;;;111.80;15.80;;;;;;;;;;5028245;28;20136;-61
2023/03/03 08:00:51;;;;;;;115.03;14.05;;;;;;;;;;5027216;28;20040;-63
2023/03/03 08:03:18;;;;;;;100.20;14.83;;;;;;;;;;5028067;28;20030;-62
2023/03/03 08:05:46;;;;;;;93.90;13.65;;;;;;;;;;5027027;28;20029;-62
2023/03/03 08:08:29;;;;;;;96.85;13.95;;;;;;;;;;5026902;28;20060;-61
2023/03/03 08:10:55;;;;;;;90.75;17.40;;;;;;;;;;5026877;28;20121;-61
2023/03/03 08:13:21;;;;;;;107.95;16.30;;;;;;;;;;5027908;28;20509;-62
2023/03/03 08:16:10;;;;;;;112.57;18.55;;;;;;;;;;5026494;28;20038;-63
2023/03/03 08:18:41;;;;;;;103.70;16.85;;;;;;;;;;5020188;28;20061;-63
2023/03/03 08:21:09;;;;;;;97.70;16.02;;;;;;;;;;5029111;28;20040;-60
2023/03/03 08:23:34;;;;;;;104.45;15.38;;;;;;;;;;5026858;28;20028;-60
2023/03/03 08:26:00;;;;;;;104.22;17.75;;;;;;;;;;5026565;28;20033;-61
2023/03/03 08:28:25;;;;;;;84.07;16.60;;;;;;;;;;5025169;28;20100;-62
2023/03/03 08:30:50;;;;;;;133.40;17.65;;;;;;;;;;5027598;28;20768;-63
2023/03/03 08:33:16;;;;;;;107.90;16.88;;;;;;;;;;5027567;28;20038;-62
2023/03/03 08:35:41;;;;;;;107.32;16.63;;;;;;;;;;5027923;28;20029;-63
2023/03/03 08:38:07;;;;;;;151.90;20.13;;;;;;;;;;5028210;28;20075;-62
2023/03/03 08:40:32;;;;;;;90.68;17.35;;;;;;;;;;5026611;28;20088;-62
2023/03/03 08:42:58;;;;;;;114.63;18.67;;;;;;;;;;5025827;28;20033;-63
2023/03/03 08:45:24;;;;;;;103.22;17.02;;;;;;;;;;5025228;28;20522;-62
2023/03/03 08:47:49;;;;;;;107.47;18.55;;;;;;;;;;5027422;28;20072;-61
2023/03/03 08:50:15;;;;;;;158.25;19.27;;;;;;;;;;5027097;28;20454;-61
2023/03/03 08:52:40;;;;;;;149.23;19.63;;;;;;;;;;5027498;28;20024;-60
2023/03/03 08:55:05;;;;;;;110.27;19.37;;;;;;;;;;5026061;28;20071;-61
2023/03/03 08:57:31;;;;;;;134.20;19.23;;;;;;;;;;5028738;28;20260;-62
2023/03/03 08:59:56;;;;;;;108.57;17.88;;;;;;;;;;5026695;28;20049;-60
2023/03/03 09:02:22;;;;;;;130.10;19.65;;;;;;;;;;5026522;28;20078;-60
2023/03/03 09:04:47;;;;;;;131.70;18.23;;;;;;;;;;5028799;28;20079;-63
2023/03/03 09:07:12;;;;;;;107.73;16.33;;;;;;;;;;5025944;28;20040;-62
2023/03/03 09:09:38;;;;;;;130.47;19.13;;;;;;;;;;5028153;28;20349;-61
2023/03/03 09:12:14;;;;;;;118.78;19.80;;;;;;;;;;5026059;28;20264;-61
2023/03/03 09:14:39;;;;;;;132.55;18.60;;;;;;;;;;5027528;28;20032;-60
2023/03/03 09:17:17;;;;;;;106.27;18.17;;;;;;;;;;5026214;28;20028;-61
2023/03/03 09:19:44;;;;;;;119.72;18.38;;;;;;;;;;5026021;28;20306;-62
2023/03/03 09:22:20;;;;;;;112.07;16.60;;;;;;;;;;5026303;28;20037;-63
2023/03/03 09:24:46;;;;;;;141.35;18.08;;;;;;;;;;5028018;28;20076;-62
2023/03/03 09:27:14;;;;;;;106.00;15.50;;;;;;;;;;5027337;28;20111;-63
2023/03/03 09:29:39;;;;;;;111.65;17.73;;;;;;;;;;5028320;28;20083;-61
2023/03/03 09:32:16;;;;;;;111.78;13.52;;;;;;;;;;5024330;28;20652;-60
2023/03/03 09:34:42;;;;;;;113.70;17.92;;;;;;;;;;5025770;28;20048;-61
2023/03/03 09:37:13;;;;;;;118.75;15.70;;;;;;;;;;5025520;28;20052;-60
2023/03/03 09:39:38;;;;;;;113.72;16.05;;;;;;;;;;5027976;28;20368;-61
2023/03/03 09:42:18;;;;;;;101.57;17.58;;;;;;;;;;5028078;28;20494;-62
2023/03/03 09:44:44;;;;;;;138.15;18.58;;;;;;;;;;5029375;28;20513;-63
2023/03/03 09:47:12;;;;;;;106.63;17.55;;;;;;;;;;5030627;28;20723;-63
2023/03/03 09:49:50;;;;;;;102.38;16.48;;;;;;;;;;5030945;28;20120;-63
2023/03/03 09:52:24;;;;;;;110.18;17.77;;;;;;;;;;5030262;28;20044;-63
2023/03/03 09:55:01;;;;;;;133.52;18.00;;;;;;;;;;5029848;28;20163;-64
2023/03/03 09:57:46;;;;;;;115.25;17.33;;;;;;;;;;5029742;28;20040;-62
2023/03/03 10:00:31;;;;;;;117.90;17.20;;;;;;;;;;5029083;28;20017;-64
2023/03/03 10:02:59;;;;;;;102.20;17.90;;;;;;;;;;5024441;28;20144;-63
2023/03/03 10:05:25;;;;;;;102.60;16.02;;;;;;;;;;5030494;28;20030;-61
2023/03/03 10:07:51;;;;;;;114.88;18.17;;;;;;;;;;5031536;28;20037;-63
2023/03/03 10:10:16;;;;;;;98.97;15.87;;;;;;;;;;5030287;28;20021;-63
2023/03/03 10:12:54;;;;;;;124.87;17.07;;;;;;;;;;5028956;28;20500;-63
2023/03/03 10:15:39;;;;;;;86.90;16.95;;;;;;;;;;5029016;28;20260;-62
2023/03/03 10:18:23;;;;;;;116.13;19.45;;;;;;;;;;5029823;28;20406;-62
2023/03/03 10:20:58;;;;;;;150.55;17.63;;;;;;;;;;5032318;28;20068;-65
2023/03/03 10:23:35;;;;;;;94.40;15.98;;;;;;;;;;5028730;28;20022;-64
2023/03/03 10:26:10;;;;;;;97.40;12.85;;;;;;;;;;5027529;28;20033;-64
2023/03/03 10:29:15;;;;;;;107.22;16.30;;;;;;;;;;5029650;28;20469;-64
2023/03/03 10:31:46;;;;;;;106.53;15.40;;;;;;;;;;4984957;28;20046;-62
2023/03/03 10:34:30;;;;;;;111.50;15.50;;;;;;;;;;4986154;28;20023;-60
2023/03/03 10:36:55;;;;;;;117.18;16.73;;;;;;;;;;5011909;28;20410;-64
2023/03/03 10:39:32;;;;;;;101.20;15.83;;;;;;;;;;5030722;28;20522;-64
2023/03/03 10:42:19;;;;;;;102.18;14.35;;;;;;;;;;5028590;28;20256;-63
2023/03/03 10:44:45;;;;;;;150.38;18.17;;;;;;;;;;5035571;28;20013;-63
2023/03/03 10:47:29;;;;;;;104.03;15.45;;;;;;;;;;5028147;28;20036;-63
2023/03/03 10:50:06;;;;;;;109.57;15.65;;;;;;;;;;5030402;28;20028;-61
2023/03/03 10:52:48;;;;;;;103.07;11.30;;;;;;;;;;5028866;28;20045;-60
2023/03/03 10:55:34;;;;;;;96.88;15.75;;;;;;;;;;5027010;28;20059;-64
2023/03/03 10:58:18;;;;;;;111.35;15.68;;;;;;;;;;5027948;28;20033;-61
2023/03/03 11:00:58;;;;;;;101.18;15.93;;;;;;;;;;5028396;28;20034;-61
2023/03/03 11:03:26;;;;;;;101.97;16.10;;;;;;;;;;5026958;28;20016;-61
2023/03/03 11:05:52;;;;;;;105.05;16.15;;;;;;;;;;5028246;28;20061;-63
2023/03/03 11:08:23;;;;;;;124.00;17.17;;;;;;;;;;5028458;28;20033;-63
2023/03/03 11:11:08;;;;;;;128.93;16.33;;;;;;;;;;5028302;28;20041;-63
2023/03/03 11:13:36;;;;;;;89.05;14.60;;;;;;;;;;5029601;28;20508;-61
2023/03/03 11:16:20;;;;;;;94.20;15.43;;;;;;;;;;5028535;28;20086;-60
2023/03/03 11:18:48;;;;;;;82.50;13.77;;;;;;;;;;5029051;28;20078;-64
2023/03/03 11:21:33;;;;;;;96.90;15.90;;;;;;;;;;5029747;28;20045;-62
2023/03/03 11:24:08;;;;;;;98.75;15.10;;;;;;;;;;5028709;28;20099;-61
2023/03/03 11:26:33;;;;;;;111.03;16.30;;;;;;;;;;5026205;28;20184;-61
2023/03/03 11:29:04;;;;;;;107.27;13.67;;;;;;;;;;5031684;28;20188;-63
2023/03/03 11:31:41;;;;;;;110.22;14.93;;;;;;;;;;5029032;28;20280;-62
2023/03/03 11:34:07;;;;;;;93.88;14.70;;;;;;;;;;5030069;28;20037;-61
2023/03/03 11:36:35;;;;;;;104.22;14.75;;;;;;;;;;5028721;28;20041;-62
2023/03/03 11:39:07;;;;;;;97.85;14.23;;;;;;;;;;5028199;28;20022;-62
2023/03/03 11:41:38;;;;;;;112.05;15.27;;;;;;;;;;5016507;28;20037;-60
2023/03/03 11:44:17;;;;;;;90.80;12.52;;;;;;;;;;5029208;28;20036;-61
2023/03/03 11:46:42;;;;;;;98.45;12.98;;;;;;;;;;5028330;28;20943;-62
2023/03/03 11:49:07;;;;;;;104.35;13.13;;;;;;;;;;5029382;28;20083;-63
2023/03/03 11:51:33;;;;;;;93.90;13.53;;;;;;;;;;5029762;28;20033;-62
2023/03/03 11:54:02;;;;;;;109.13;14.37;;;;;;;;;;5027495;28;20266;-62
2023/03/03 11:56:38;;;;;;;108.00;14.77;;;;;;;;;;5028276;28;20037;-62
2023/03/03 11:59:09;;;;;;;86.28;14.25;;;;;;;;;;5027881;28;20030;-64
2023/03/03 12:01:38;;;;;;;97.97;12.93;;;;;;;;;;5026916;28;20187;-60
2023/03/03 12:04:05;;;;;;;108.55;14.90;;;;;;;;;;5027356;28;20384;-62
2023/03/03 12:06:46;;;;;;;122.03;15.52;;;;;;;;;;5026324;28;20044;-61
2023/03/03 12:09:31;;;;;;;99.32;14.90;;;;;;;;;;5026603;28;20040;-63
2023/03/03 12:12:03;;;;;;;103.70;16.00;;;;;;;;;;5025912;28;20124;-63
2023/03/03 12:14:34;;;;;;;121.75;15.77;;;;;;;;;;5027913;28;20040;-62
2023/03/03 12:17:18;;;;;;;99.10;13.93;;;;;;;;;;5027027;28;20515;-62
2023/03/03 12:19:46;;;;;;;125.88;15.77;;;;;;;;;;5026996;28;20501;-62
2023/03/03 12:22:18;;;;;;;99.03;15.43;;;;;;;;;;5026231;28;20902;-61
2023/03/03 12:24:49;;;;;;;160.45;17.17;;;;;;;;;;5027668;28;20024;-62
2023/03/03 12:27:33;;;;;;;110.22;15.15;;;;;;;;;;5026986;28;20032;-61
2023/03/03 12:30:05;;;;;;;124.93;14.95;;;;;;;;;;5027223;28;20028;-63
2023/03/03 12:32:39;;;;;;;115.60;14.05;;;;;;;;;;5027744;28;20479;-61
2023/03/03 12:35:25;;;;;;;134.38;15.93;;;;;;;;;;5026153;28;20025;-62
2023/03/03 12:37:50;;;;;;;145.32;16.55;;;;;;;;;;5033092;28;20041;-62
2023/03/03 12:40:18;;;;;;;120.50;15.87;;;;;;;;;;5027815;28;20021;-61
2023/03/03 12:42:57;;;;;;;119.40;14.23;;;;;;;;;;5027282;28;21118;-62
2023/03/03 12:45:29;;;;;;;115.15;14.60;;;;;;;;;;5025166;28;20470;-62
2023/03/03 12:47:59;;;;;;;111.80;14.52;;;;;;;;;;5027554;28;20112;-62
2023/03/03 12:50:24;;;;;;;128.00;15.82;;;;;;;;;;5026494;28;20525;-61
2023/03/03 12:52:57;;;;;;;117.72;15.05;;;;;;;;;;5026740;28;20135;-60
2023/03/03 12:55:31;;;;;;;121.07;15.60;;;;;;;;;;5026387;28;20016;-60
2023/03/03 12:58:05;;;;;;;90.38;8.90;;;;;;;;;;5028571;28;20112;-62
2023/03/03 13:00:33;;;;;;;135.60;16.08;;;;;;;;;;5025589;28;20710;-61
2023/03/03 13:03:05;;;;;;;113.55;14.10;;;;;;;;;;5026096;28;20031;-60
2023/03/03 13:05:33;;;;;;;117.85;14.88;;;;;;;;;;5026617;28;20598;-62
2023/03/03 13:08:05;;;;;;;105.32;12.82;;;;;;;;;;5026734;28;20039;-61
2023/03/03 13:10:39;;;;;;;109.35;14.15;;;;;;;;;;5024981;28;20029;-63
2023/03/03 13:13:04;;;;;;;114.57;14.43;;;;;;;;;;5024809;28;20028;-63
2023/03/03 13:15:32;;;;;;;127.80;14.70;;;;;;;;;;5025728;28;20034;-61
2023/03/03 13:18:24;;;;;;;117.65;14.45;;;;;;;;;;5027199;28;20112;-61
2023/03/03 13:21:00;;;;;;;129.38;15.23;;;;;;;;;;5024620;28;20539;-62
2023/03/03 13:23:31;;;;;;;101.93;11.93;;;;;;;;;;5027503;28;20014;-61
2023/03/03 13:26:02;;;;;;;111.60;13.45;;;;;;;;;;5025472;28;20037;-62
2023/03/03 13:28:35;;;;;;;103.75;11.65;;;;;;;;;;5028437;28;20033;-62
2023/03/03 13:31:03;;;;;;;130.77;14.63;;;;;;;;;;5025216;28;20037;-63
2023/03/03 13:33:35;;;;;;;112.63;14.02;;;;;;;;;;5025474;28;20052;-62
2023/03/03 13:36:10;;;;;;;99.50;13.18;;;;;;;;;;5025729;28;20128;-61
2023/03/03 13:38:39;;;;;;;98.28;12.82;;;;;;;;;;5025976;28;20028;-62
2023/03/03 13:41:08;;;;;;;115.10;13.68;;;;;;;;;;5027036;28;20033;-61
2023/03/03 13:43:38;;;;;;;105.20;13.13;;;;;;;;;;5024507;28;20025;-60
2023/03/03 13:46:04;;;;;;;84.40;10.65;;;;;;;;;;5024208;28;20536;-60
2023/03/03 13:48:48;;;;;;;104.25;12.52;;;;;;;;;;5026725;28;20519;-62
2023/03/03 13:51:22;;;;;;;84.13;13.00;;;;;;;;;;5026027;28;20072;-61
2023/03/03 13:54:03;;;;;;;118.55;12.18;;;;;;;;;;5024877;28;20017;-63
2023/03/03 13:56:28;;;;;;;102.47;13.05;;;;;;;;;;5023469;28;20029;-60
2023/03/03 13:59:00;;;;;;;106.63;12.47;;;;;;;;;;5027861;28;20028;-61
2023/03/03 14:01:35;;;;;;;135.43;14.07;;;;;;;;;;5025626;28;20818;-61
2023/03/03 14:04:12;;;;;;;124.70;13.43;;;;;;;;;;5025674;28;20640;-62
2023/03/03 14:06:39;;;;;;;95.10;12.75;;;;;;;;;;5028158;28;20116;-61
2023/03/03 14:09:10;;;;;;;108.85;12.15;;;;;;;;;;5026788;28;20040;-61
2023/03/03 14:11:48;;;;;;;99.45;12.75;;;;;;;;;;5023821;28;20044;-61
2023/03/03 14:14:19;;;;;;;103.60;12.38;;;;;;;;;;5027024;28;20036;-61
2023/03/03 14:16:44;;;;;;;88.68;9.02;;;;;;;;;;5025444;28;20033;-61
2023/03/03 14:19:13;;;;;;;112.82;12.70;;;;;;;;;;5024868;28;20036;-61